sensor_id;sensor_type;location;lat;lon;timestamp;pressure;altitude;pressure_sealevel;temperature;humidity
51359;BME280;37448;51.588;7.248;2024-02-15T00:01:42;101083.44;;;11.13;100.00
51359;BME280;37448;51.588;7.248;2024-02-15T00:03:42;101086.88;;;11.15;100.00
51359;BME280;37448;51.588;7.248;2024-02-15T00:05:43;101085.16;;;11.14;100.00
51359;BME280;37448;51.588;7.248;2024-02-15T00:07:44;101083.44;;;11.13;100.00
51359;BME280;37448;51.588;7.248;2024-02-15T00:09:44;101079.94;;;11.13;100.00
51359;BME280;37448;51.588;7.248;2024-02-15T00:11:45;101085.16;;;11.14;100.00
51359;BME280;37448;51.588;7.248;2024-02-15T00:13:45;101080.78;;;11.15;100.00
51359;BME280;37448;51.588;7.248;2024-02-15T00:15:45;101082.53;;;11.14;100.00
51359;BME280;37448;51.588;7.248;2024-02-15T00:17:50;101080.78;;;11.15;100.00
51359;BME280;37448;51.588;7.248;2024-02-15T00:19:51;101082.56;;;11.13;100.00
51359;BME280;37448;51.588;7.248;2024-02-15T00:21:52;101086.03;;;11.13;100.00
51359;BME280;37448;51.588;7.248;2024-02-15T00:23:52;101082.53;;;11.14;100.00
51359;BME280;37448;51.588;7.248;2024-02-15T00:25:55;101077.34;;;11.13;100.00
51359;BME280;37448;51.588;7.248;2024-02-15T00:27:56;101082.56;;;11.13;100.00
51359;BME280;37448;51.588;7.248;2024-02-15T00:29:56;101081.66;;;11.14;100.00
51359;BME280;37448;51.588;7.248;2024-02-15T00:31:57;101083.38;;;11.15;100.00
51359;BME280;37448;51.588;7.248;2024-02-15T00:33:57;101075.56;;;11.15;100.00
51359;BME280;37448;51.588;7.248;2024-02-15T00:35:58;101079.06;;;11.14;100.00
51359;BME280;37448;51.588;7.248;2024-02-15T00:37:59;101078.16;;;11.15;100.00
51359;BME280;37448;51.588;7.248;2024-02-15T00:40:00;101086.00;;;11.15;100.00
51359;BME280;37448;51.588;7.248;2024-02-15T00:42:00;101088.66;;;11.13;100.00
51359;BME280;37448;51.588;7.248;2024-02-15T00:44:01;101084.28;;;11.15;100.00
51359;BME280;37448;51.588;7.248;2024-02-15T00:46:01;101087.72;;;11.16;100.00
51359;BME280;37448;51.588;7.248;2024-02-15T00:48:02;101092.09;;;11.15;100.00
51359;BME280;37448;51.588;7.248;2024-02-15T00:50:02;101092.09;;;11.14;100.00
51359;BME280;37448;51.588;7.248;2024-02-15T00:52:03;101099.94;;;11.14;100.00
51359;BME280;37448;51.588;7.248;2024-02-15T00:54:04;101092.94;;;11.16;100.00
51359;BME280;37448;51.588;7.248;2024-02-15T00:56:05;101099.03;;;11.16;100.00
51359;BME280;37448;51.588;7.248;2024-02-15T00:58:05;101096.44;;;11.15;100.00
51359;BME280;37448;51.588;7.248;2024-02-15T01:00:07;101097.31;;;11.15;100.00
51359;BME280;37448;51.588;7.248;2024-02-15T01:02:09;101091.22;;;11.15;100.00
51359;BME280;37448;51.588;7.248;2024-02-15T01:04:10;101094.66;;;11.17;100.00
51359;BME280;37448;51.588;7.248;2024-02-15T01:06:10;101096.41;;;11.18;100.00
51359;BME280;37448;51.588;7.248;2024-02-15T01:08:11;101096.44;;;11.16;100.00
51359;BME280;37448;51.588;7.248;2024-02-15T01:10:11;101095.56;;;11.16;100.00
51359;BME280;37448;51.588;7.248;2024-02-15T01:12:12;101096.41;;;11.18;100.00
51359;BME280;37448;51.588;7.248;2024-02-15T01:14:13;101094.66;;;11.17;100.00
51359;BME280;37448;51.588;7.248;2024-02-15T01:16:13;101099.84;;;11.20;100.00
51359;BME280;37448;51.588;7.248;2024-02-15T01:18:13;101095.56;;;11.17;100.00
51359;BME280;37448;51.588;7.248;2024-02-15T01:20:14;101091.19;;;11.18;100.00
51359;BME280;37448;51.588;7.248;2024-02-15T01:22:16;101090.34;;;11.17;100.00
51359;BME280;37448;51.588;7.248;2024-02-15T01:24:16;101092.06;;;11.18;100.00
51359;BME280;37448;51.588;7.248;2024-02-15T01:26:16;101093.78;;;11.19;100.00
51359;BME280;37448;51.588;7.248;2024-02-15T01:28:17;101092.91;;;11.19;100.00
51359;BME280;37448;51.588;7.248;2024-02-15T01:30:18;101088.56;;;11.19;100.00
51359;BME280;37448;51.588;7.248;2024-02-15T01:32:18;101082.47;;;11.19;100.00
51359;BME280;37448;51.588;7.248;2024-02-15T01:34:19;101089.41;;;11.20;100.00
51359;BME280;37448;51.588;7.248;2024-02-15T01:36:21;101086.84;;;11.18;100.00
51359;BME280;37448;51.588;7.248;2024-02-15T01:38:22;101084.19;;;11.20;100.00
51359;BME280;37448;51.588;7.248;2024-02-15T01:40:22;101091.13;;;11.21;100.00
51359;BME280;37448;51.588;7.248;2024-02-15T01:42:22;101081.56;;;11.22;100.00
51359;BME280;37448;51.588;7.248;2024-02-15T01:44:23;101090.25;;;11.22;100.00
51359;BME280;37448;51.588;7.248;2024-02-15T01:46:24;101082.47;;;11.19;100.00
51359;BME280;37448;51.588;7.248;2024-02-15T01:48:25;101091.13;;;11.21;100.00
51359;BME280;37448;51.588;7.248;2024-02-15T01:50:26;101084.22;;;11.18;100.00
51359;BME280;37448;51.588;7.248;2024-02-15T01:52:27;101085.91;;;11.21;100.00
51359;BME280;37448;51.588;7.248;2024-02-15T01:54:28;101080.69;;;11.21;100.00
51359;BME280;37448;51.588;7.248;2024-02-15T01:56:29;101079.81;;;11.22;100.00
51359;BME280;37448;51.588;7.248;2024-02-15T01:58:31;101077.25;;;11.19;100.00
51359;BME280;37448;51.588;7.248;2024-02-15T02:00:33;101074.63;;;11.19;100.00
51359;BME280;37448;51.588;7.248;2024-02-15T02:02:34;101070.25;;;11.21;100.00
51359;BME280;37448;51.588;7.248;2024-02-15T02:04:36;101074.63;;;11.20;100.00
51359;BME280;37448;51.588;7.248;2024-02-15T02:06:37;101072.88;;;11.21;100.00
51359;BME280;37448;51.588;7.248;2024-02-15T02:08:37;101072.00;;;11.20;100.00
51359;BME280;37448;51.588;7.248;2024-02-15T02:10:41;101072.03;;;11.19;100.00
51359;BME280;37448;51.588;7.248;2024-02-15T02:12:41;101072.03;;;11.19;100.00
51359;BME280;37448;51.588;7.248;2024-02-15T02:14:42;101069.41;;;11.19;100.00
51359;BME280;37448;51.588;7.248;2024-02-15T02:16:42;101063.31;;;11.22;100.00
51359;BME280;37448;51.588;7.248;2024-02-15T02:18:43;101061.63;;;11.17;100.00
51359;BME280;37448;51.588;7.248;2024-02-15T02:20:43;101055.53;;;11.17;100.00
51359;BME280;37448;51.588;7.248;2024-02-15T02:22:48;101062.47;;;11.18;100.00
51359;BME280;37448;51.588;7.248;2024-02-15T02:25:07;101058.13;;;11.17;100.00
51359;BME280;37448;51.588;7.248;2024-02-15T02:27:12;101049.41;;;11.18;100.00
51359;BME280;37448;51.588;7.248;2024-02-15T02:29:15;101052.06;;;11.16;100.00
51359;BME280;37448;51.588;7.248;2024-02-15T02:31:15;101049.47;;;11.16;100.00
51359;BME280;37448;51.588;7.248;2024-02-15T02:33:16;101045.97;;;11.16;100.00
51359;BME280;37448;51.588;7.248;2024-02-15T02:35:21;101048.56;;;11.16;100.00
51359;BME280;37448;51.588;7.248;2024-02-15T02:37:24;101045.97;;;11.16;100.00
51359;BME280;37448;51.588;7.248;2024-02-15T02:39:25;101049.47;;;11.15;100.00
51359;BME280;37448;51.588;7.248;2024-02-15T02:41:27;101046.84;;;11.15;100.00
51359;BME280;37448;51.588;7.248;2024-02-15T02:43:28;101042.53;;;11.14;100.00
51359;BME280;37448;51.588;7.248;2024-02-15T02:45:28;101039.91;;;11.15;100.00
51359;BME280;37448;51.588;7.248;2024-02-15T02:47:29;101039.03;;;11.15;100.00
51359;BME280;37448;51.588;7.248;2024-02-15T02:49:29;101036.47;;;11.13;100.00
51359;BME280;37448;51.588;7.248;2024-02-15T02:51:29;101036.47;;;11.12;100.00
51359;BME280;37448;51.588;7.248;2024-02-15T02:53:30;101038.19;;;11.11;100.00
51359;BME280;37448;51.588;7.248;2024-02-15T02:55:30;101040.78;;;11.13;100.00
51359;BME280;37448;51.588;7.248;2024-02-15T02:57:31;101034.69;;;11.12;100.00
51359;BME280;37448;51.588;7.248;2024-02-15T02:59:34;101035.56;;;11.13;100.00
51359;BME280;37448;51.588;7.248;2024-02-15T03:01:35;101036.47;;;11.12;100.00
51359;BME280;37448;51.588;7.248;2024-02-15T03:03:36;101032.97;;;11.13;100.00
51359;BME280;37448;51.588;7.248;2024-02-15T03:05:36;101036.47;;;11.12;100.00
51359;BME280;37448;51.588;7.248;2024-02-15T03:07:37;101034.69;;;11.12;100.00
51359;BME280;37448;51.588;7.248;2024-02-15T03:09:38;101029.50;;;11.11;100.00
51359;BME280;37448;51.588;7.248;2024-02-15T03:11:38;101037.34;;;11.11;100.00
51359;BME280;37448;51.588;7.248;2024-02-15T03:13:38;101028.63;;;11.12;100.00
51359;BME280;37448;51.588;7.248;2024-02-15T03:15:39;101036.47;;;11.12;100.00
51359;BME280;37448;51.588;7.248;2024-02-15T03:17:43;101032.09;;;11.12;100.00
51359;BME280;37448;51.588;7.248;2024-02-15T03:19:44;101021.69;;;11.11;100.00
51359;BME280;37448;51.588;7.248;2024-02-15T03:21:45;101022.53;;;11.11;100.00
51359;BME280;37448;51.588;7.248;2024-02-15T03:23:46;101022.53;;;11.11;100.00
51359;BME280;37448;51.588;7.248;2024-02-15T03:25:47;101017.31;;;11.11;100.00
51359;BME280;37448;51.588;7.248;2024-02-15T03:27:58;101026.91;;;11.11;100.00
51359;BME280;37448;51.588;7.248;2024-02-15T03:29:59;101018.25;;;11.09;100.00
51359;BME280;37448;51.588;7.248;2024-02-15T03:32:00;101016.50;;;11.08;100.00
51359;BME280;37448;51.588;7.248;2024-02-15T03:34:01;101021.69;;;11.11;100.00
51359;BME280;37448;51.588;7.248;2024-02-15T03:36:01;101025.19;;;11.10;100.00
51359;BME280;37448;51.588;7.248;2024-02-15T03:38:02;101013.06;;;11.05;100.00
51359;BME280;37448;51.588;7.248;2024-02-15T03:40:03;101016.50;;;11.08;100.00
51359;BME280;37448;51.588;7.248;2024-02-15T03:42:04;101017.34;;;11.10;100.00
51359;BME280;37448;51.588;7.248;2024-02-15T03:44:06;101013.88;;;11.09;100.00
51359;BME280;37448;51.588;7.248;2024-02-15T03:46:06;101013.91;;;11.08;100.00
51359;BME280;37448;51.588;7.248;2024-02-15T03:48:09;101006.06;;;11.08;100.00
51359;BME280;37448;51.588;7.248;2024-02-15T03:50:09;101009.56;;;11.07;100.00
51359;BME280;37448;51.588;7.248;2024-02-15T03:52:10;101009.56;;;11.07;100.00
51359;BME280;37448;51.588;7.248;2024-02-15T03:54:13;101012.19;;;11.07;100.00
51359;BME280;37448;51.588;7.248;2024-02-15T03:56:14;101013.03;;;11.07;100.00
51359;BME280;37448;51.588;7.248;2024-02-15T03:58:14;101008.75;;;11.03;100.00
51359;BME280;37448;51.588;7.248;2024-02-15T04:00:15;101011.28;;;11.08;100.00
51359;BME280;37448;51.588;7.248;2024-02-15T04:02:20;101012.19;;;11.07;100.00
51359;BME280;37448;51.588;7.248;2024-02-15T04:04:21;101003.50;;;11.04;100.00
51359;BME280;37448;51.588;7.248;2024-02-15T04:06:22;101008.72;;;11.04;100.00
51359;BME280;37448;51.588;7.248;2024-02-15T04:08:24;101006.13;;;11.04;100.00
51359;BME280;37448;51.588;7.248;2024-02-15T04:10:25;101009.56;;;11.05;100.00
51359;BME280;37448;51.588;7.248;2024-02-15T04:12:25;101002.63;;;11.05;100.00
51359;BME280;37448;51.588;7.248;2024-02-15T04:14:27;100996.56;;;11.03;100.00
51359;BME280;37448;51.588;7.248;2024-02-15T04:16:28;101010.41;;;11.07;100.00
51359;BME280;37448;51.588;7.248;2024-02-15T04:18:30;101000.84;;;11.08;100.00
51359;BME280;37448;51.588;7.248;2024-02-15T04:20:32;100999.13;;;11.07;100.00
51359;BME280;37448;51.588;7.248;2024-02-15T04:22:33;100993.03;;;11.06;100.00
51359;BME280;37448;51.588;7.248;2024-02-15T04:24:37;101005.22;;;11.05;100.00
51359;BME280;37448;51.588;7.248;2024-02-15T04:26:41;101000.03;;;11.04;100.00
51359;BME280;37448;51.588;7.248;2024-02-15T04:28:42;101000.84;;;11.08;100.00
51359;BME280;37448;51.588;7.248;2024-02-15T04:30:42;101000.03;;;11.05;100.00
51359;BME280;37448;51.588;7.248;2024-02-15T04:32:43;100986.09;;;11.05;100.00
51359;BME280;37448;51.588;7.248;2024-02-15T04:34:43;100995.69;;;11.04;100.00
51359;BME280;37448;51.588;7.248;2024-02-15T04:36:47;100998.25;;;11.06;100.00
51359;BME280;37448;51.588;7.248;2024-02-15T04:38:51;100993.03;;;11.06;100.00
51359;BME280;37448;51.588;7.248;2024-02-15T04:40:53;100990.47;;;11.04;100.00
51359;BME280;37448;51.588;7.248;2024-02-15T04:42:54;101006.06;;;11.08;100.00
51359;BME280;37448;51.588;7.248;2024-02-15T04:44:54;101001.78;;;11.03;100.00
51359;BME280;37448;51.588;7.248;2024-02-15T04:46:55;100990.47;;;11.04;100.00
51359;BME280;37448;51.588;7.248;2024-02-15T04:48:55;100997.38;;;11.09;100.00
51359;BME280;37448;51.588;7.248;2024-02-15T04:50:58;100988.69;;;11.07;100.00
51359;BME280;37448;51.588;7.248;2024-02-15T04:52:59;100992.16;;;11.09;100.00
51359;BME280;37448;51.588;7.248;2024-02-15T04:55:00;100998.22;;;11.09;100.00
51359;BME280;37448;51.588;7.248;2024-02-15T04:57:00;100994.81;;;11.05;100.00
51359;BME280;37448;51.588;7.248;2024-02-15T04:59:01;100991.31;;;11.07;100.00
51359;BME280;37448;51.588;7.248;2024-02-15T05:01:03;100990.47;;;11.04;100.00
51359;BME280;37448;51.588;7.248;2024-02-15T05:03:05;100983.47;;;11.07;100.00
51359;BME280;37448;51.588;7.248;2024-02-15T05:05:08;100991.25;;;11.08;100.00
51359;BME280;37448;51.588;7.248;2024-02-15T05:07:09;100984.38;;;11.04;100.00
51359;BME280;37448;51.588;7.248;2024-02-15T05:09:11;100988.75;;;11.03;100.00
51359;BME280;37448;51.588;7.248;2024-02-15T05:11:12;100983.53;;;11.03;100.00
51359;BME280;37448;51.588;7.248;2024-02-15T05:13:17;100980.88;;;11.05;100.00
51359;BME280;37448;51.588;7.248;2024-02-15T05:15:18;100986.03;;;11.08;100.00
51359;BME280;37448;51.588;7.248;2024-02-15T05:17:23;100987.81;;;11.08;100.00
51359;BME280;37448;51.588;7.248;2024-02-15T05:19:23;100987.81;;;11.08;100.00
51359;BME280;37448;51.588;7.248;2024-02-15T05:21:23;100988.69;;;11.07;100.00
51359;BME280;37448;51.588;7.248;2024-02-15T05:23:24;100982.59;;;11.08;100.00
51359;BME280;37448;51.588;7.248;2024-02-15T05:25:24;100980.81;;;11.08;100.00
51359;BME280;37448;51.588;7.248;2024-02-15T05:27:26;100978.25;;;11.07;100.00
51359;BME280;37448;51.588;7.248;2024-02-15T05:29:27;100977.38;;;11.08;100.00
51359;BME280;37448;51.588;7.248;2024-02-15T05:31:28;100979.97;;;11.08;100.00
51359;BME280;37448;51.588;7.248;2024-02-15T05:33:29;100979.97;;;11.08;100.00
51359;BME280;37448;51.588;7.248;2024-02-15T05:35:32;100973.03;;;11.07;100.00
51359;BME280;37448;51.588;7.248;2024-02-15T05:37:33;100976.47;;;11.09;100.00
51359;BME280;37448;51.588;7.248;2024-02-15T05:39:35;100974.75;;;11.08;100.00
51359;BME280;37448;51.588;7.248;2024-02-15T05:41:35;100975.66;;;11.07;100.00
51359;BME280;37448;51.588;7.248;2024-02-15T05:43:35;100978.25;;;11.07;100.00
51359;BME280;37448;51.588;7.248;2024-02-15T05:45:36;100968.66;;;11.09;100.00
51359;BME280;37448;51.588;7.248;2024-02-15T05:47:39;100970.44;;;11.07;100.00
51359;BME280;37448;51.588;7.248;2024-02-15T05:49:40;100966.03;;;11.09;100.00
51359;BME280;37448;51.588;7.248;2024-02-15T05:51:41;100960.88;;;11.05;100.00
51359;BME280;37448;51.588;7.248;2024-02-15T05:53:41;100962.59;;;11.07;100.00
51359;BME280;37448;51.588;7.248;2024-02-15T05:55:42;100962.59;;;11.07;100.00
51359;BME280;37448;51.588;7.248;2024-02-15T05:57:44;100968.66;;;11.09;100.00
51359;BME280;37448;51.588;7.248;2024-02-15T05:59:45;100962.59;;;11.07;100.00
51359;BME280;37448;51.588;7.248;2024-02-15T06:01:46;100965.16;;;11.10;100.00
51359;BME280;37448;51.588;7.248;2024-02-15T06:03:48;100966.91;;;11.09;100.00
51359;BME280;37448;51.588;7.248;2024-02-15T06:05:49;100967.72;;;11.13;100.00
51359;BME280;37448;51.588;7.248;2024-02-15T06:07:49;100965.13;;;11.11;100.00
51359;BME280;37448;51.588;7.248;2024-02-15T06:09:49;100963.38;;;11.12;100.00
51359;BME280;37448;51.588;7.248;2024-02-15T06:11:50;100966.84;;;11.12;100.00
51359;BME280;37448;51.588;7.248;2024-02-15T06:13:52;100962.50;;;11.13;100.00
51359;BME280;37448;51.588;7.248;2024-02-15T06:15:53;100966.00;;;11.12;100.00
51359;BME280;37448;51.588;7.248;2024-02-15T06:17:54;100966.00;;;11.12;100.00
51359;BME280;37448;51.588;7.248;2024-02-15T06:19:54;100962.47;;;11.16;100.00
51359;BME280;37448;51.588;7.248;2024-02-15T06:21:55;100962.50;;;11.13;100.00
51359;BME280;37448;51.588;7.248;2024-02-15T06:23:56;100970.31;;;11.14;100.00
51359;BME280;37448;51.588;7.248;2024-02-15T06:25:57;100972.00;;;11.17;100.00
51359;BME280;37448;51.588;7.248;2024-02-15T06:28:03;100974.56;;;11.20;100.00
51359;BME280;37448;51.588;7.248;2024-02-15T06:30:14;100972.84;;;11.19;100.00
51359;BME280;37448;51.588;7.248;2024-02-15T06:32:33;100975.50;;;11.16;100.00
51359;BME280;37448;51.588;7.248;2024-02-15T06:34:51;100972.91;;;11.16;100.00
51359;BME280;37448;51.588;7.248;2024-02-15T06:37:10;100975.47;;;11.19;100.00
51359;BME280;37448;51.588;7.248;2024-02-15T06:39:29;100984.19;;;11.18;100.00
51359;BME280;37448;51.588;7.248;2024-02-15T06:41:41;100973.72;;;11.18;100.00
51359;BME280;37448;51.588;7.248;2024-02-15T06:43:41;100981.56;;;11.18;100.00
51359;BME280;37448;51.588;7.248;2024-02-15T06:45:42;100976.34;;;11.18;100.00
51359;BME280;37448;51.588;7.248;2024-02-15T06:47:46;100980.72;;;11.17;100.00
51359;BME280;37448;51.588;7.248;2024-02-15T06:49:47;100983.34;;;11.16;100.00
51359;BME280;37448;51.588;7.248;2024-02-15T06:51:51;100988.56;;;11.16;100.00
51359;BME280;37448;51.588;7.248;2024-02-15T06:53:51;100991.16;;;11.16;100.00
51359;BME280;37448;51.588;7.248;2024-02-15T06:55:56;100988.59;;;11.13;100.00
51359;BME280;37448;51.588;7.248;2024-02-15T06:57:56;100990.31;;;11.14;100.00
51359;BME280;37448;51.588;7.248;2024-02-15T06:59:57;100982.53;;;11.11;100.00
51359;BME280;37448;51.588;7.248;2024-02-15T07:02:00;100986.88;;;11.12;100.00
51359;BME280;37448;51.588;7.248;2024-02-15T07:04:01;100992.09;;;11.12;100.00
51359;BME280;37448;51.588;7.248;2024-02-15T07:06:03;100988.59;;;11.13;100.00
51359;BME280;37448;51.588;7.248;2024-02-15T07:08:05;100997.28;;;11.15;100.00
51359;BME280;37448;51.588;7.248;2024-02-15T07:10:06;101002.44;;;11.18;100.00
51359;BME280;37448;51.588;7.248;2024-02-15T07:12:06;100990.28;;;11.17;100.00
51359;BME280;37448;51.588;7.248;2024-02-15T07:14:07;100998.16;;;11.15;100.00
51359;BME280;37448;51.588;7.248;2024-02-15T07:16:09;100994.66;;;11.16;100.00
51359;BME280;37448;51.588;7.248;2024-02-15T07:18:09;100992.09;;;11.12;100.00
51359;BME280;37448;51.588;7.248;2024-02-15T07:20:12;100992.94;;;11.14;100.00
51359;BME280;37448;51.588;7.248;2024-02-15T07:22:17;100989.47;;;11.13;100.00
51359;BME280;37448;51.588;7.248;2024-02-15T07:24:18;100992.94;;;11.14;100.00
51359;BME280;37448;51.588;7.248;2024-02-15T07:26:20;100988.59;;;11.14;100.00
51359;BME280;37448;51.588;7.248;2024-02-15T07:28:20;100989.44;;;11.15;100.00
51359;BME280;37448;51.588;7.248;2024-02-15T07:30:21;100981.59;;;11.15;100.00
51359;BME280;37448;51.588;7.248;2024-02-15T07:32:22;100977.28;;;11.15;100.00
51359;BME280;37448;51.588;7.248;2024-02-15T07:34:23;100978.06;;;11.19;100.00
51359;BME280;37448;51.588;7.248;2024-02-15T07:36:24;100977.22;;;11.18;100.00
51359;BME280;37448;51.588;7.248;2024-02-15T07:38:24;100972.91;;;11.16;100.00
51359;BME280;37448;51.588;7.248;2024-02-15T07:40:25;100959.88;;;11.14;100.00
51359;BME280;37448;51.588;7.248;2024-02-15T07:42:28;100960.72;;;11.16;100.00
51359;BME280;37448;51.588;7.248;2024-02-15T07:44:28;100952.91;;;11.16;100.00
51359;BME280;37448;51.588;7.248;2024-02-15T07:46:31;100938.09;;;11.17;100.00
51359;BME280;37448;51.588;7.248;2024-02-15T07:48:31;100917.19;;;11.17;100.00
51359;BME280;37448;51.588;7.248;2024-02-15T07:50:32;100916.38;;;11.15;100.00
51359;BME280;37448;51.588;7.248;2024-02-15T07:52:32;100908.59;;;11.13;100.00
51359;BME280;37448;51.588;7.248;2024-02-15T07:54:33;100905.97;;;11.13;100.00
51359;BME280;37448;51.588;7.248;2024-02-15T07:56:34;100905.94;;;11.15;100.00
51359;BME280;37448;51.588;7.248;2024-02-15T07:58:38;100897.25;;;11.13;100.00
51359;BME280;37448;51.588;7.248;2024-02-15T08:00:40;100904.22;;;11.12;100.00
51359;BME280;37448;51.588;7.248;2024-02-15T08:02:41;100909.44;;;11.14;100.00
51359;BME280;37448;51.588;7.248;2024-02-15T08:04:41;100908.53;;;11.15;100.00
51359;BME280;37448;51.588;7.248;2024-02-15T08:06:44;100915.53;;;11.13;100.00
51359;BME280;37448;51.588;7.248;2024-02-15T08:08:47;100929.41;;;11.15;100.00
51359;BME280;37448;51.588;7.248;2024-02-15T08:10:47;100932.91;;;11.14;100.00
51359;BME280;37448;51.588;7.248;2024-02-15T08:12:51;100941.56;;;11.16;100.00
51359;BME280;37448;51.588;7.248;2024-02-15T08:14:53;100938.09;;;11.17;100.00
51359;BME280;37448;51.588;7.248;2024-02-15T08:16:53;100943.25;;;11.20;100.00
51359;BME280;37448;51.588;7.248;2024-02-15T08:18:55;100951.91;;;11.22;100.00
51359;BME280;37448;51.588;7.248;2024-02-15T08:20:57;100954.53;;;11.24;100.00
51359;BME280;37448;51.588;7.248;2024-02-15T08:22:57;100957.13;;;11.22;100.00
51359;BME280;37448;51.588;7.248;2024-02-15T08:24:59;100961.44;;;11.26;100.00
51359;BME280;37448;51.588;7.248;2024-02-15T08:27:00;100951.84;;;11.28;100.00
51359;BME280;37448;51.588;7.248;2024-02-15T08:29:00;100960.50;;;11.30;100.00
51359;BME280;37448;51.588;7.248;2024-02-15T08:31:01;100964.84;;;11.31;100.00
51359;BME280;37448;51.588;7.248;2024-02-15T08:33:01;100962.25;;;11.31;100.00
51359;BME280;37448;51.588;7.248;2024-02-15T08:35:02;100964.75;;;11.36;100.00
51359;BME280;37448;51.588;7.248;2024-02-15T08:37:04;100969.13;;;11.37;100.00
51359;BME280;37448;51.588;7.248;2024-02-15T08:39:05;100954.28;;;11.41;100.00
51359;BME280;37448;51.588;7.248;2024-02-15T08:41:06;100955.16;;;11.41;100.00
51359;BME280;37448;51.588;7.248;2024-02-15T08:43:07;100949.06;;;11.42;100.00
51359;BME280;37448;51.588;7.248;2024-02-15T08:45:08;100944.69;;;11.40;100.00
51359;BME280;37448;51.588;7.248;2024-02-15T08:47:09;100949.91;;;11.43;100.00
51359;BME280;37448;51.588;7.248;2024-02-15T08:49:09;100943.84;;;11.41;100.00
51359;BME280;37448;51.588;7.248;2024-02-15T08:51:12;100943.78;;;11.45;100.00
51359;BME280;37448;51.588;7.248;2024-02-15T08:53:13;100940.28;;;11.45;100.00
51359;BME280;37448;51.588;7.248;2024-02-15T08:55:15;100942.06;;;11.43;100.00
51359;BME280;37448;51.588;7.248;2024-02-15T08:57:17;100935.97;;;11.44;100.00
51359;BME280;37448;51.588;7.248;2024-02-15T08:59:19;100943.72;;;11.47;100.00
51359;BME280;37448;51.588;7.248;2024-02-15T09:01:20;100938.56;;;11.45;100.00
51359;BME280;37448;51.588;7.248;2024-02-15T09:03:20;100939.41;;;11.46;100.00
51359;BME280;37448;51.588;7.248;2024-02-15T09:05:21;100936.84;;;11.44;100.00
51359;BME280;37448;51.588;7.248;2024-02-15T09:07:22;100928.94;;;11.49;100.00
51359;BME280;37448;51.588;7.248;2024-02-15T09:09:22;100921.97;;;11.48;100.00
51359;BME280;37448;51.588;7.248;2024-02-15T09:11:28;100933.34;;;11.44;100.00
51359;BME280;37448;51.588;7.248;2024-02-15T09:13:28;100933.34;;;11.44;100.00
51359;BME280;37448;51.588;7.248;2024-02-15T09:15:29;100933.38;;;11.42;100.00
51359;BME280;37448;51.588;7.248;2024-02-15T09:17:31;100927.25;;;11.45;100.00
51359;BME280;37448;51.588;7.248;2024-02-15T09:19:35;100937.69;;;11.45;100.00
51359;BME280;37448;51.588;7.248;2024-02-15T09:21:36;100929.00;;;11.44;100.00
51359;BME280;37448;51.588;7.248;2024-02-15T09:23:37;100931.63;;;11.44;100.00
51359;BME280;37448;51.588;7.248;2024-02-15T09:25:41;100934.19;;;11.46;100.00
51359;BME280;37448;51.588;7.248;2024-02-15T09:27:45;100941.09;;;11.50;100.00
51359;BME280;37448;51.588;7.248;2024-02-15T09:29:48;100941.06;;;11.53;100.00
51359;BME280;37448;51.588;7.248;2024-02-15T09:31:48;100932.31;;;11.54;100.00
51359;BME280;37448;51.588;7.248;2024-02-15T09:33:49;100930.53;;;11.56;100.00
51359;BME280;37448;51.588;7.248;2024-02-15T09:35:49;100934.91;;;11.56;100.00
51359;BME280;37448;51.588;7.248;2024-02-15T09:37:50;100936.63;;;11.57;100.00
51359;BME280;37448;51.588;7.248;2024-02-15T09:39:50;100932.28;;;11.56;100.00
51359;BME280;37448;51.588;7.248;2024-02-15T09:41:50;100934.78;;;11.63;100.00
51359;BME280;37448;51.588;7.248;2024-02-15T09:43:58;100935.66;;;11.62;100.00
51359;BME280;37448;51.588;7.248;2024-02-15T09:45:59;100933.03;;;11.62;100.00
51359;BME280;37448;51.588;7.248;2024-02-15T09:48:04;100928.66;;;11.65;100.00
51359;BME280;37448;51.588;7.248;2024-02-15T09:50:07;100927.69;;;11.70;100.00
51359;BME280;37448;51.588;7.248;2024-02-15T09:52:09;100924.16;;;11.73;100.00
51359;BME280;37448;51.588;7.248;2024-02-15T09:54:16;100919.78;;;11.75;100.00
51359;BME280;37448;51.588;7.248;2024-02-15T09:56:23;100920.56;;;11.80;100.00
51359;BME280;37448;51.588;7.248;2024-02-15T09:58:25;100918.72;;;11.87;100.00
51359;BME280;37448;51.588;7.248;2024-02-15T10:00:25;100918.50;;;11.98;100.00
51359;BME280;37448;51.588;7.248;2024-02-15T10:02:26;100908.81;;;12.03;100.00
51359;BME280;37448;51.588;7.248;2024-02-15T10:04:27;100922.72;;;12.05;100.00
51359;BME280;37448;51.588;7.248;2024-02-15T10:06:27;100922.53;;;12.14;100.00
51359;BME280;37448;51.588;7.248;2024-02-15T10:08:29;100929.41;;;12.18;100.00
51359;BME280;37448;51.588;7.248;2024-02-15T10:10:30;100918.75;;;12.29;100.00
51359;BME280;37448;51.588;7.248;2024-02-15T10:12:37;100922.25;;;12.30;100.00
51359;BME280;37448;51.588;7.248;2024-02-15T10:14:38;100924.72;;;12.36;100.00
51359;BME280;37448;51.588;7.248;2024-02-15T10:16:47;100922.91;;;12.40;100.00
51359;BME280;37448;51.588;7.248;2024-02-15T10:18:48;100924.66;;;12.39;100.00
51359;BME280;37448;51.588;7.248;2024-02-15T10:20:57;100928.28;;;12.33;100.00
51359;BME280;37448;51.588;7.248;2024-02-15T10:25:11;100932.63;;;12.33;100.00
51359;BME280;37448;51.588;7.248;2024-02-15T10:27:12;100936.00;;;12.38;100.00
51359;BME280;37448;51.588;7.248;2024-02-15T10:29:12;100929.13;;;12.34;100.00
51359;BME280;37448;51.588;7.248;2024-02-15T10:31:15;100942.13;;;12.37;100.00